NY95 weather

Creekside Airport
Holcomb, New York, United States

Public forecast

Using degrees Fahrenheit for public forecast. Weather courtesy of forecast.io.

METAR (pilot weather report)

Closest report is Greater Rochester International Airport, 17.6 nm (32.6 km) NW. Retrieved 2019/05/25 19:54 UTC (38 minutes ago):

KROC 251954Z 15007KT 10SM FEW038 SCT120 SCT250 26/18 A2985 RMK AO2 SLP110 T02560183

TAF (pilot weather forecast)

Closest forecast is Greater Rochester International Airport, 17.6 nm (32.6 km) NW. Retrieved 2019/05/25 18:36 UTC (2 hours ago):

TAF KROC 251735Z 2518/2618 16010KT P6SM SCT040 FM260000 23008KT P6SM OVC200 TEMPO 2600/2602 5SM -TSRA BKN040CB FM261200 27009KT P6SM BKN025 FM261300 27009KT P6SM SCT100